createdAt,value
2023-05-02T00:01:20.066Z,15.00
2023-05-02T00:03:47.309Z,15.00
2023-05-02T00:06:14.316Z,15.00
2023-05-02T00:08:41.284Z,15.10
2023-05-02T00:11:08.078Z,15.80
2023-05-02T00:13:34.840Z,15.10
2023-05-02T00:16:01.578Z,15.20
2023-05-02T00:18:28.401Z,15.00
2023-05-02T00:20:56.970Z,15.00
2023-05-02T00:23:24.129Z,15.00
2023-05-02T00:25:50.915Z,15.10
2023-05-02T00:28:18.197Z,15.00
2023-05-02T00:30:46.152Z,15.10
2023-05-02T00:33:14.804Z,15.10
2023-05-02T00:35:42.015Z,16.00
2023-05-02T00:38:08.833Z,15.00
2023-05-02T00:40:49.214Z,15.00
2023-05-02T00:43:17.118Z,15.00
2023-05-02T00:45:46.230Z,15.00
2023-05-02T00:48:13.149Z,14.90
2023-05-02T00:50:42.028Z,15.00
2023-05-02T00:53:10.241Z,14.90
2023-05-02T00:55:37.157Z,14.90
2023-05-02T00:58:07.144Z,14.80
2023-05-02T01:00:57.233Z,14.90
2023-05-02T01:03:42.298Z,14.90
2023-05-02T01:06:43.353Z,14.90
2023-05-02T01:09:25.321Z,14.80
2023-05-02T01:12:20.919Z,14.80
2023-05-02T01:14:53.971Z,14.70
2023-05-02T01:17:24.693Z,14.60
2023-05-02T01:19:54.869Z,14.50
2023-05-02T01:22:24.294Z,14.40
2023-05-02T01:25:19.951Z,14.40
2023-05-02T01:28:25.329Z,14.30
2023-05-02T01:30:56.189Z,14.10
2023-05-02T01:33:25.583Z,14.10
2023-05-02T01:35:53.673Z,14.20
2023-05-02T01:38:22.098Z,14.40
2023-05-02T01:40:51.450Z,14.20
2023-05-02T01:43:20.111Z,14.10
2023-05-02T01:45:50.120Z,14.10
2023-05-02T01:48:19.325Z,14.10
2023-05-02T01:50:47.630Z,14.10
2023-05-02T01:53:15.290Z,14.00
2023-05-02T01:55:45.259Z,14.00
2023-05-02T01:58:15.093Z,14.00
2023-05-02T02:00:45.289Z,13.90
2023-05-02T02:03:14.265Z,13.90
2023-05-02T02:05:41.708Z,13.80
2023-05-02T02:08:09.009Z,13.80
2023-05-02T02:10:43.208Z,13.80
2023-05-02T02:13:18.319Z,14.00
2023-05-02T02:15:49.167Z,13.90
2023-05-02T02:18:26.359Z,13.90
2023-05-02T02:20:55.417Z,13.90
2023-05-02T02:23:26.742Z,14.00
2023-05-02T02:25:54.320Z,13.80
2023-05-02T02:28:21.083Z,13.80
2023-05-02T02:30:48.308Z,13.80
2023-05-02T02:33:15.105Z,13.70
2023-05-02T02:35:48.276Z,13.70
2023-05-02T02:38:31.521Z,13.70
2023-05-02T02:41:13.429Z,13.90
2023-05-02T02:43:58.251Z,13.90
2023-05-02T02:46:43.828Z,13.80
2023-05-02T02:49:52.777Z,13.80
2023-05-02T02:52:45.016Z,13.70
2023-05-02T02:55:38.475Z,13.80
2023-05-02T02:58:25.557Z,13.60
2023-05-02T03:00:53.094Z,13.70
2023-05-02T03:03:22.576Z,13.70
2023-05-02T03:05:51.804Z,13.70
2023-05-02T03:08:18.562Z,13.70
2023-05-02T03:10:45.312Z,13.80
2023-05-02T03:13:12.439Z,13.80
2023-05-02T03:15:53.229Z,13.60
2023-05-02T03:18:26.753Z,13.70
2023-05-02T03:20:54.256Z,13.60
2023-05-02T03:23:21.031Z,13.60
2023-05-02T03:25:48.807Z,13.70
2023-05-02T03:28:20.838Z,13.70
2023-05-02T03:30:49.326Z,13.70
2023-05-02T03:33:16.427Z,13.70
2023-05-02T03:35:44.813Z,13.80
2023-05-02T03:38:12.760Z,16.20
2023-05-02T03:40:39.672Z,14.00
2023-05-02T03:43:09.953Z,13.90
2023-05-02T03:45:36.857Z,14.10
2023-05-02T03:48:03.814Z,14.00
2023-05-02T03:50:31.085Z,14.10
2023-05-02T03:52:58.931Z,14.10
2023-05-02T03:55:45.789Z,14.00
2023-05-02T03:58:19.974Z,13.90
2023-05-02T04:00:47.083Z,13.80
2023-05-02T04:03:15.026Z,13.70
2023-05-02T04:05:44.309Z,13.60
2023-05-02T04:08:13.373Z,13.50
2023-05-02T04:10:40.874Z,13.50
2023-05-02T04:13:10.024Z,13.40
2023-05-02T04:15:40.236Z,13.50
2023-05-02T04:18:07.601Z,13.40
2023-05-02T04:20:35.717Z,13.40
2023-05-02T04:23:02.682Z,13.30
2023-05-02T04:25:29.725Z,13.30
2023-05-02T04:27:59.756Z,14.00
2023-05-02T04:30:26.579Z,13.20
2023-05-02T04:33:00.188Z,13.20
2023-05-02T04:35:31.289Z,13.20
2023-05-02T04:37:58.143Z,13.30
2023-05-02T04:40:26.096Z,13.80
2023-05-02T04:42:59.854Z,13.20
2023-05-02T04:45:36.635Z,13.10
2023-05-02T04:48:05.999Z,12.90
2023-05-02T04:50:32.878Z,13.00
2023-05-02T04:52:59.659Z,12.90
2023-05-02T04:55:27.211Z,12.90
2023-05-02T04:57:53.965Z,12.80
2023-05-02T05:00:21.857Z,12.80
2023-05-02T05:02:48.756Z,12.80
2023-05-02T05:05:16.345Z,14.00
2023-05-02T05:07:43.520Z,12.90
2023-05-02T05:10:13.893Z,12.80
2023-05-02T05:12:44.724Z,12.90
2023-05-02T05:15:11.790Z,12.90
2023-05-02T05:17:40.832Z,12.90
2023-05-02T05:20:10.180Z,12.90
2023-05-02T05:22:42.259Z,13.00
2023-05-02T05:25:11.526Z,12.90
2023-05-02T05:27:38.620Z,12.90
2023-05-02T05:30:08.850Z,12.90
2023-05-02T05:32:35.768Z,12.80
2023-05-02T05:35:02.758Z,12.70
2023-05-02T05:37:29.484Z,12.80
2023-05-02T05:39:58.394Z,12.70
2023-05-02T05:42:25.807Z,12.70
2023-05-02T05:44:56.267Z,12.70
2023-05-02T05:47:23.738Z,12.60
2023-05-02T05:49:55.930Z,12.50
2023-05-02T05:52:26.819Z,13.30
2023-05-02T05:54:56.634Z,12.80
2023-05-02T05:57:24.943Z,12.80
2023-05-02T05:59:52.756Z,12.90
2023-05-02T06:02:19.952Z,12.90
2023-05-02T06:04:47.015Z,13.00
2023-05-02T06:07:16.121Z,13.10
2023-05-02T06:09:42.890Z,13.10
2023-05-02T06:12:09.667Z,13.20
2023-05-02T06:14:37.561Z,13.30
2023-05-02T06:17:04.308Z,13.50
2023-05-02T06:19:31.098Z,13.50
2023-05-02T06:21:57.751Z,13.60
2023-05-02T06:24:24.500Z,13.70
2023-05-02T06:26:51.738Z,13.70
2023-05-02T06:29:18.521Z,13.80
2023-05-02T06:31:45.335Z,13.60
2023-05-02T06:34:12.238Z,13.50
2023-05-02T06:36:38.982Z,13.60
2023-05-02T06:39:05.738Z,14.70
2023-05-02T06:41:32.429Z,13.90
2023-05-02T06:43:59.577Z,13.90
2023-05-02T06:46:29.777Z,13.60
2023-05-02T06:48:56.649Z,13.60
2023-05-02T06:51:23.512Z,13.70
2023-05-02T06:53:50.257Z,13.80
2023-05-02T06:56:18.026Z,13.70
2023-05-02T06:58:44.722Z,13.70
2023-05-02T07:01:12.542Z,13.60
2023-05-02T07:03:39.355Z,13.60
2023-05-02T07:06:06.131Z,14.40
2023-05-02T07:08:32.897Z,13.80
2023-05-02T07:10:59.637Z,13.70
2023-05-02T07:13:26.401Z,13.70
2023-05-02T07:15:53.410Z,13.80
2023-05-02T07:18:21.180Z,14.40
2023-05-02T07:20:48.007Z,13.80
2023-05-02T07:23:14.727Z,13.80
2023-05-02T07:25:41.520Z,13.90
2023-05-02T07:28:08.558Z,14.00
2023-05-02T07:30:35.362Z,14.10
2023-05-02T07:33:02.284Z,14.00
2023-05-02T07:35:29.044Z,13.90
2023-05-02T07:37:55.877Z,13.90
2023-05-02T07:40:22.714Z,13.90
2023-05-02T07:42:50.936Z,13.80
2023-05-02T07:45:18.124Z,13.80
2023-05-02T07:47:46.362Z,13.90
2023-05-02T07:50:13.249Z,14.60
2023-05-02T07:52:40.082Z,14.10
2023-05-02T07:55:07.556Z,14.30
2023-05-02T07:57:34.330Z,14.40
2023-05-02T08:00:01.328Z,14.50
2023-05-02T08:02:41.346Z,14.60
2023-05-02T08:05:09.158Z,14.60
2023-05-02T08:07:37.244Z,14.80
2023-05-02T08:10:05.739Z,14.80
2023-05-02T08:12:32.535Z,15.00
2023-05-02T08:14:59.245Z,14.80
2023-05-02T08:17:28.936Z,14.70
2023-05-02T08:19:55.706Z,14.60
2023-05-02T08:22:22.366Z,15.20
2023-05-02T08:24:49.117Z,14.30
2023-05-02T08:27:15.868Z,14.40
2023-05-02T08:29:42.625Z,14.40
2023-05-02T08:32:09.459Z,14.50
2023-05-02T08:34:36.715Z,14.50
2023-05-02T08:37:09.129Z,14.60
2023-05-02T08:39:35.902Z,14.60
2023-05-02T08:42:09.940Z,15.30
2023-05-02T08:44:37.656Z,14.90
2023-05-02T08:47:06.023Z,15.10
2023-05-02T08:49:34.935Z,15.20
2023-05-02T08:52:02.226Z,15.00
2023-05-02T08:54:29.375Z,15.00
2023-05-02T08:56:56.782Z,15.00
2023-05-02T08:59:23.493Z,15.10
2023-05-02T09:01:55.260Z,15.10
2023-05-02T09:04:24.727Z,15.50
2023-05-02T09:06:51.903Z,15.30
2023-05-02T09:09:19.563Z,15.40
2023-05-02T09:11:47.811Z,15.40
2023-05-02T09:14:16.163Z,15.50
2023-05-02T09:16:43.512Z,15.60
2023-05-02T09:19:10.608Z,15.60
2023-05-02T09:21:41.270Z,15.60
2023-05-02T09:24:19.083Z,15.70
2023-05-02T09:27:00.810Z,13.30
2023-05-02T09:29:30.666Z,15.60
2023-05-02T09:31:57.563Z,15.60
2023-05-02T09:34:24.580Z,15.70
2023-05-02T09:36:54.467Z,15.70
2023-05-02T09:39:25.844Z,16.60
2023-05-02T09:41:53.526Z,15.50
2023-05-02T09:44:26.302Z,15.50
2023-05-02T09:46:54.927Z,15.50
2023-05-02T09:49:41.694Z,15.40
2023-05-02T09:52:22.142Z,15.50
2023-05-02T09:54:53.222Z,15.60
2023-05-02T09:57:20.584Z,16.00
2023-05-02T09:59:58.050Z,16.00
2023-05-02T10:02:26.080Z,16.00
2023-05-02T10:04:56.884Z,15.90
2023-05-02T10:07:24.815Z,15.80
2023-05-02T10:09:57.456Z,15.80
2023-05-02T10:12:30.665Z,15.90
2023-05-02T10:15:03.246Z,15.80
2023-05-02T10:17:42.254Z,15.70
2023-05-02T10:20:11.081Z,15.80
2023-05-02T10:22:38.636Z,15.80
2023-05-02T10:25:06.534Z,15.90
2023-05-02T10:27:33.493Z,16.20
2023-05-02T10:30:01.033Z,16.30
2023-05-02T10:32:34.391Z,18.00
2023-05-02T10:35:05.715Z,16.60
2023-05-02T10:37:34.584Z,16.80
2023-05-02T10:40:01.947Z,16.80
2023-05-02T10:42:30.171Z,17.70
2023-05-02T10:44:56.981Z,17.00
2023-05-02T10:47:26.764Z,16.90
2023-05-02T10:50:01.860Z,16.90
2023-05-02T10:52:38.795Z,17.00
2023-05-02T10:55:22.758Z,17.40
2023-05-02T10:58:22.323Z,17.20
2023-05-02T11:00:49.438Z,16.70
2023-05-02T11:03:54.239Z,16.40
2023-05-02T11:06:21.205Z,16.40
2023-05-02T11:08:48.067Z,16.70
2023-05-02T11:11:45.399Z,16.60
2023-05-02T11:14:33.269Z,16.60
2023-05-02T11:17:06.180Z,16.60
2023-05-02T11:19:38.802Z,16.70
2023-05-02T11:22:17.721Z,16.50
2023-05-02T11:24:47.787Z,16.50
2023-05-02T11:27:30.030Z,16.50
2023-05-02T11:29:57.553Z,16.60
2023-05-02T11:32:25.786Z,16.80
2023-05-02T11:34:55.504Z,17.10
2023-05-02T11:37:22.295Z,16.70
2023-05-02T11:39:51.476Z,16.40
2023-05-02T11:42:31.093Z,16.50
2023-05-02T11:45:00.113Z,17.00
2023-05-02T11:47:28.240Z,17.30
2023-05-02T11:49:56.436Z,17.70
2023-05-02T11:52:23.913Z,17.30
2023-05-02T11:54:54.312Z,17.30
2023-05-02T11:57:22.069Z,17.20
2023-05-02T11:59:53.060Z,17.20
2023-05-02T12:02:21.364Z,17.10
2023-05-02T12:04:48.193Z,16.70
2023-05-02T12:07:15.085Z,16.80
2023-05-02T12:09:52.892Z,16.80
2023-05-02T12:12:21.515Z,17.00
2023-05-02T12:14:48.635Z,18.00
2023-05-02T12:17:15.634Z,17.80
2023-05-02T12:19:42.671Z,17.30
2023-05-02T12:22:10.358Z,18.20
2023-05-02T12:24:37.208Z,17.50
2023-05-02T12:27:14.097Z,17.00
2023-05-02T12:29:45.169Z,17.60
2023-05-02T12:32:13.055Z,17.30
2023-05-02T12:34:40.705Z,17.30
2023-05-02T12:37:08.811Z,17.10
2023-05-02T12:39:36.310Z,17.70
2023-05-02T12:42:13.400Z,17.60
2023-05-02T12:44:42.604Z,18.00
2023-05-02T12:47:11.771Z,18.00
2023-05-02T12:49:51.488Z,18.30
2023-05-02T12:52:19.405Z,17.90
2023-05-02T12:54:46.721Z,18.10
2023-05-02T12:57:24.338Z,17.80
2023-05-02T12:59:54.469Z,17.50
2023-05-02T13:02:22.653Z,17.60
2023-05-02T13:04:49.541Z,17.70
2023-05-02T13:07:16.321Z,18.10
2023-05-02T13:09:43.005Z,17.70
2023-05-02T13:12:09.993Z,18.00
2023-05-02T13:14:36.763Z,18.20
2023-05-02T13:17:03.918Z,18.30
2023-05-02T13:19:31.449Z,18.20
2023-05-02T13:21:58.348Z,18.20
2023-05-02T13:24:25.329Z,18.70
2023-05-02T13:26:52.078Z,18.50
2023-05-02T13:29:18.843Z,18.40
2023-05-02T13:31:46.038Z,18.70
2023-05-02T13:34:12.808Z,18.40
2023-05-02T13:36:45.914Z,18.50
2023-05-02T13:39:13.806Z,18.70
2023-05-02T13:41:40.607Z,18.90
2023-05-02T13:44:09.171Z,19.00
2023-05-02T13:46:37.755Z,19.40
2023-05-02T13:49:05.235Z,19.40
2023-05-02T13:51:32.532Z,19.50
2023-05-02T13:53:59.882Z,19.20
2023-05-02T13:56:26.838Z,19.30
2023-05-02T13:58:53.786Z,19.20
2023-05-02T14:01:20.527Z,19.30
2023-05-02T14:03:47.397Z,19.60
2023-05-02T14:06:14.308Z,19.40
2023-05-02T14:08:41.097Z,19.00
2023-05-02T14:11:07.858Z,18.50
2023-05-02T14:13:34.597Z,18.50
2023-05-02T14:16:01.362Z,18.60
2023-05-02T14:18:28.243Z,18.70
2023-05-02T14:20:57.850Z,19.20
2023-05-02T14:23:24.838Z,19.70
2023-05-02T14:25:51.627Z,20.10
2023-05-02T14:28:18.459Z,20.20
2023-05-02T14:30:45.216Z,20.50
2023-05-02T14:33:12.131Z,20.00
2023-05-02T14:35:38.978Z,19.70
2023-05-02T14:38:05.679Z,19.80
2023-05-02T14:40:32.990Z,19.70
2023-05-02T14:42:59.788Z,20.20
2023-05-02T14:45:26.750Z,20.00
2023-05-02T14:47:53.471Z,20.10
2023-05-02T14:50:20.374Z,20.30
2023-05-02T14:52:47.116Z,20.10
2023-05-02T14:55:13.875Z,20.00
2023-05-02T14:57:40.618Z,20.20
2023-05-02T15:00:08.290Z,20.20
2023-05-02T15:02:36.076Z,20.30
2023-05-02T15:05:03.930Z,20.50
2023-05-02T15:07:30.732Z,20.50
2023-05-02T15:09:57.907Z,20.40
2023-05-02T15:12:26.237Z,20.30
2023-05-02T15:14:53.057Z,20.30
2023-05-02T15:17:19.729Z,20.20
2023-05-02T15:19:46.413Z,20.30
2023-05-02T15:22:13.080Z,19.90
2023-05-02T15:24:39.834Z,19.90
2023-05-02T15:27:06.561Z,20.10
2023-05-02T15:29:33.383Z,20.20
2023-05-02T15:32:00.201Z,20.30
2023-05-02T15:34:27.517Z,20.50
2023-05-02T15:36:56.046Z,20.70
2023-05-02T15:39:25.037Z,20.70
2023-05-02T15:41:53.083Z,20.70
2023-05-02T15:44:19.882Z,20.80
2023-05-02T15:46:47.249Z,20.90
2023-05-02T15:49:14.139Z,21.00
2023-05-02T15:51:40.839Z,20.90
2023-05-02T15:54:07.598Z,20.80
2023-05-02T15:56:34.401Z,20.80
2023-05-02T15:59:01.192Z,20.80
2023-05-02T16:01:27.947Z,20.60
2023-05-02T16:03:54.682Z,20.70
2023-05-02T16:06:21.388Z,20.90
2023-05-02T16:08:48.182Z,20.90
2023-05-02T16:11:15.004Z,20.50
2023-05-02T16:13:41.684Z,20.30
2023-05-02T16:16:08.527Z,20.30
2023-05-02T16:18:35.328Z,20.50
2023-05-02T16:21:02.230Z,20.60
2023-05-02T16:23:28.921Z,20.80
2023-05-02T16:25:59.769Z,20.70
2023-05-02T16:28:26.687Z,20.40
2023-05-02T16:30:53.565Z,20.30
2023-05-02T16:33:21.548Z,20.50
2023-05-02T16:35:48.406Z,20.10
2023-05-02T16:38:15.132Z,19.90
2023-05-02T16:40:41.900Z,19.50
2023-05-02T16:43:08.886Z,19.60
2023-05-02T16:45:35.706Z,19.20
2023-05-02T16:48:03.433Z,18.90
2023-05-02T16:50:30.340Z,18.90
2023-05-02T16:52:57.115Z,19.00
2023-05-02T16:55:23.921Z,19.30
2023-05-02T16:57:50.862Z,19.50
2023-05-02T17:00:18.370Z,19.70
2023-05-02T17:02:46.762Z,20.10
2023-05-02T17:05:13.693Z,20.00
2023-05-02T17:07:40.543Z,20.30
2023-05-02T17:10:07.853Z,20.50
2023-05-02T17:12:34.568Z,20.70
2023-05-02T17:15:02.308Z,20.60
2023-05-02T17:17:30.895Z,20.30
2023-05-02T17:19:57.662Z,19.70
2023-05-02T17:22:24.600Z,19.50
2023-05-02T17:24:53.975Z,19.50
2023-05-02T17:27:20.864Z,19.20
2023-05-02T17:29:47.548Z,19.20
2023-05-02T17:32:15.684Z,19.00
2023-05-02T17:34:43.418Z,18.90
2023-05-02T17:37:10.365Z,18.70
2023-05-02T17:39:37.069Z,18.50
2023-05-02T17:42:03.878Z,18.10
2023-05-02T17:44:36.084Z,18.00
2023-05-02T17:47:03.903Z,17.70
2023-05-02T17:49:30.740Z,17.50
2023-05-02T17:51:57.448Z,17.20
2023-05-02T17:54:24.312Z,17.00
2023-05-02T17:56:51.222Z,16.80
2023-05-02T17:59:18.828Z,16.80
2023-05-02T18:01:45.697Z,17.00
2023-05-02T18:04:14.043Z,16.80
2023-05-02T18:06:40.930Z,16.80
2023-05-02T18:09:07.771Z,16.70
2023-05-02T18:11:37.519Z,16.50
2023-05-02T18:14:06.037Z,16.20
2023-05-02T18:16:34.499Z,16.10
2023-05-02T18:19:01.666Z,16.00
2023-05-02T18:21:29.001Z,15.90
2023-05-02T18:23:56.881Z,15.80
2023-05-02T18:26:23.776Z,15.70
2023-05-02T18:28:53.138Z,15.50
2023-05-02T18:31:20.593Z,15.40
2023-05-02T18:33:47.545Z,15.40
2023-05-02T18:36:18.966Z,15.40
2023-05-02T18:38:45.885Z,16.20
2023-05-02T18:41:12.753Z,15.40
2023-05-02T18:43:39.455Z,15.40
2023-05-02T18:46:07.901Z,15.40
2023-05-02T18:48:36.002Z,15.10
2023-05-02T18:51:02.694Z,15.00
2023-05-02T18:53:29.531Z,14.90
2023-05-02T18:55:56.490Z,14.80
2023-05-02T18:58:23.470Z,14.80
2023-05-02T19:00:50.666Z,14.70
2023-05-02T19:03:17.562Z,14.70
2023-05-02T19:05:44.421Z,14.70
2023-05-02T19:08:12.057Z,14.50
2023-05-02T19:10:38.990Z,14.60
2023-05-02T19:13:05.716Z,14.60
2023-05-02T19:15:33.860Z,14.40
2023-05-02T19:18:00.778Z,14.30
2023-05-02T19:20:29.138Z,14.20
2023-05-02T19:23:07.174Z,14.00
2023-05-02T19:25:42.718Z,14.00
2023-05-02T19:28:10.662Z,14.00
2023-05-02T19:30:40.044Z,13.90
2023-05-02T19:33:06.982Z,13.70
2023-05-02T19:35:35.239Z,14.20
2023-05-02T19:38:03.269Z,13.60
2023-05-02T19:40:30.075Z,13.50
2023-05-02T19:42:56.870Z,13.50
2023-05-02T19:45:24.019Z,13.50
2023-05-02T19:47:50.814Z,13.40
2023-05-02T19:50:17.677Z,13.30
2023-05-02T19:52:44.968Z,13.30
2023-05-02T19:55:11.906Z,13.30
2023-05-02T19:57:38.629Z,13.10
2023-05-02T20:00:06.331Z,13.20
2023-05-02T20:02:39.415Z,13.20
2023-05-02T20:05:06.806Z,13.20
2023-05-02T20:07:33.558Z,13.10
2023-05-02T20:10:00.629Z,13.10
2023-05-02T20:12:27.652Z,13.10
2023-05-02T20:14:54.850Z,13.10
2023-05-02T20:17:21.510Z,13.10
2023-05-02T20:19:48.183Z,13.10
2023-05-02T20:22:15.104Z,12.80
2023-05-02T20:24:41.912Z,13.10
2023-05-02T20:27:08.732Z,13.00
2023-05-02T20:29:35.443Z,13.00
2023-05-02T20:32:02.250Z,12.90
2023-05-02T20:34:28.980Z,12.80
2023-05-02T20:36:55.722Z,12.80
2023-05-02T20:39:22.576Z,12.80
2023-05-02T20:41:49.629Z,12.80
2023-05-02T20:44:17.603Z,12.80
2023-05-02T20:46:44.274Z,12.80
2023-05-02T20:49:11.066Z,12.80
2023-05-02T20:51:37.766Z,12.60
2023-05-02T20:54:04.651Z,12.70
2023-05-02T20:56:31.401Z,12.70
2023-05-02T20:58:58.127Z,12.60
2023-05-02T21:01:26.281Z,12.60
2023-05-02T21:03:53.184Z,12.50
2023-05-02T21:06:20.974Z,12.60
2023-05-02T21:08:48.241Z,12.50
2023-05-02T21:11:15.971Z,12.50
2023-05-02T21:13:43.341Z,12.40
2023-05-02T21:16:17.553Z,12.40
2023-05-02T21:18:44.586Z,12.40
2023-05-02T21:21:11.346Z,12.30
2023-05-02T21:23:38.116Z,12.30
2023-05-02T21:26:05.107Z,12.30
2023-05-02T21:28:32.037Z,12.20
2023-05-02T21:31:00.807Z,12.30
2023-05-02T21:33:27.534Z,12.00
2023-05-02T21:35:57.809Z,12.10
2023-05-02T21:38:27.658Z,12.00
2023-05-02T21:40:54.489Z,11.90
2023-05-02T21:43:21.276Z,11.90
2023-05-02T21:45:49.541Z,12.00
2023-05-02T21:48:17.567Z,12.00
2023-05-02T21:50:45.225Z,11.90
2023-05-02T21:53:12.516Z,11.90
2023-05-02T21:55:39.772Z,11.90
2023-05-02T21:58:07.630Z,11.80
2023-05-02T22:00:38.812Z,11.80
2023-05-02T22:03:08.425Z,11.80
2023-05-02T22:05:42.174Z,11.70
2023-05-02T22:08:10.933Z,11.60
2023-05-02T22:10:39.355Z,11.60
2023-05-02T22:13:09.484Z,11.60
2023-05-02T22:15:36.731Z,11.50
2023-05-02T22:18:07.094Z,11.60
2023-05-02T22:20:33.929Z,11.60
2023-05-02T22:23:00.846Z,11.60
2023-05-02T22:25:27.671Z,11.40
2023-05-02T22:27:54.559Z,11.40
2023-05-02T22:30:21.432Z,11.40
2023-05-02T22:32:48.230Z,11.30
2023-05-02T22:35:15.067Z,11.30
2023-05-02T22:37:41.795Z,11.30
2023-05-02T22:40:10.258Z,11.30
2023-05-02T22:42:37.062Z,11.30
2023-05-02T22:45:04.528Z,11.20
2023-05-02T22:47:32.233Z,11.10
2023-05-02T22:49:59.465Z,11.20
2023-05-02T22:52:27.297Z,11.00
2023-05-02T22:54:54.225Z,10.90
2023-05-02T22:57:21.098Z,10.90
2023-05-02T22:59:47.881Z,10.90
2023-05-02T23:02:14.786Z,10.80
2023-05-02T23:04:41.498Z,10.80
2023-05-02T23:07:08.274Z,10.70
2023-05-02T23:09:34.972Z,10.80
2023-05-02T23:12:02.609Z,10.80
2023-05-02T23:14:29.418Z,10.80
2023-05-02T23:16:56.174Z,10.80
2023-05-02T23:19:23.032Z,10.70
2023-05-02T23:21:49.750Z,10.80
2023-05-02T23:24:16.456Z,10.70
2023-05-02T23:26:43.175Z,10.70
2023-05-02T23:29:10.999Z,10.70
2023-05-02T23:31:38.541Z,10.70
2023-05-02T23:34:05.536Z,10.70
2023-05-02T23:36:33.189Z,10.60
2023-05-02T23:39:02.410Z,10.60
2023-05-02T23:41:30.415Z,10.60
2023-05-02T23:43:57.132Z,10.60
2023-05-02T23:46:25.148Z,10.50
2023-05-02T23:48:51.922Z,10.50
2023-05-02T23:51:18.732Z,10.40
2023-05-02T23:53:45.400Z,10.50
2023-05-02T23:56:12.293Z,10.50
2023-05-02T23:58:39.094Z,10.50
